Pagina principale
METAR-TAF:

METAR-TAF

Aeroporti :

Aeroporto di Malabo

Malabo, Guinea Equatoriale

latitudine: 03-45-18N, longitudine: 08-42-31E, altezza: 23 m

Osservazione

Il bollettino è stato emesso 31 minuti fa, alle 19:00 UTC
Vento 7 kt da sud-ovest
Temperature 28°C
Umidità 89%
Pressione 1009 hPa
Visibilità: 8000 m
Poco nuvoloso ad un'altezza di 1000 ft

METAR: FGSL 241900Z 23007KT 8000 FEW010 28/26 Q1009 NOSIG

Ora: 20:31 (19:31 UTC)

Previsione

Il bollettino è stato emesso 2 ore e 31 minuti fa, alle 17:00 UTC
Previsione valida dal 24 alle 18 UTC al 25 alle 24 UTC
Vento 6 kt da ovest/sud-ovest
Visibilità: 8000 m
Nubi sparse ad un'altezza di 1300 ft
Temporaneamente
dal 25 alle 10 UTC al 25 alle 16 UTC
Nuvoloso ad un'altezza di 1300 ft
Poco nuvoloso ad un'altezza di 2000 ft, Cumulonembo.

TAF: FGSL 241700Z 2418/2524 24006KT 8000 SCT013 TEMPO 2510/2516 BKN013 FEW020CB

Osservazioni e previsioni meteorologiche di più di 4000 aeroporti (messaggi METAR e TAF).

Le stazioni disponibili sono rappresentate dai dischi gialli e rossi sulla carta.

Puntare il mouse per vedere il nome della stazione.

Clicca sopra per visualizzare le osservazioni e previsioni meteorologiche.

Per cambiare la mappa : fare clic sui pulsanti verdi con una croce nera per ingrandire, il pulsante verde con un trattino per diminuire, o sulla freccia verde per le mappe adiacenti.


METAR-TAF: